sensor_id;sensor_type;location;lat;lon;timestamp;pressure;altitude;pressure_sealevel;temperature;humidity
29815;BME280;16708;50.426;7.664;2023-05-22T00:03:38;984.76;;;15.16;100.00
29815;BME280;16708;50.426;7.664;2023-05-22T00:08:33;984.76;;;15.12;100.00
29815;BME280;16708;50.426;7.664;2023-05-22T00:13:28;984.80;;;15.03;100.00
29815;BME280;16708;50.426;7.664;2023-05-22T00:18:21;984.72;;;14.93;100.00
29815;BME280;16708;50.426;7.664;2023-05-22T00:23:16;984.65;;;14.87;100.00
29815;BME280;16708;50.426;7.664;2023-05-22T00:28:10;984.63;;;14.81;100.00
29815;BME280;16708;50.426;7.664;2023-05-22T00:33:04;984.56;;;14.70;100.00
29815;BME280;16708;50.426;7.664;2023-05-22T00:38:00;984.55;;;14.65;100.00
29815;BME280;16708;50.426;7.664;2023-05-22T00:42:53;984.49;;;14.59;100.00
29815;BME280;16708;50.426;7.664;2023-05-22T00:47:47;984.58;;;14.59;100.00
29815;BME280;16708;50.426;7.664;2023-05-22T00:52:41;984.58;;;14.54;100.00
29815;BME280;16708;50.426;7.664;2023-05-22T00:57:37;984.59;;;14.48;100.00
29815;BME280;16708;50.426;7.664;2023-05-22T01:02:29;984.65;;;14.47;100.00
29815;BME280;16708;50.426;7.664;2023-05-22T01:07:24;984.68;;;14.47;100.00
29815;BME280;16708;50.426;7.664;2023-05-22T01:12:18;984.60;;;14.36;100.00
29815;BME280;16708;50.426;7.664;2023-05-22T01:17:13;984.56;;;14.24;100.00
29815;BME280;16708;50.426;7.664;2023-05-22T01:31:56;984.62;;;14.12;100.00
29815;BME280;16708;50.426;7.664;2023-05-22T01:36:50;984.62;;;14.05;100.00
29815;BME280;16708;50.426;7.664;2023-05-22T01:41:44;984.61;;;13.97;100.00
29815;BME280;16708;50.426;7.664;2023-05-22T01:46:39;984.59;;;14.10;100.00
29815;BME280;16708;50.426;7.664;2023-05-22T01:51:33;984.60;;;14.09;100.00
29815;BME280;16708;50.426;7.664;2023-05-22T01:56:28;984.61;;;14.04;100.00
29815;BME280;16708;50.426;7.664;2023-05-22T02:01:22;984.56;;;14.00;100.00
29815;BME280;16708;50.426;7.664;2023-05-22T02:06:16;984.58;;;13.90;100.00
29815;BME280;16708;50.426;7.664;2023-05-22T02:11:10;984.60;;;13.79;100.00
29815;BME280;16708;50.426;7.664;2023-05-22T02:16:04;984.66;;;13.66;100.00
29815;BME280;16708;50.426;7.664;2023-05-22T02:20:59;984.62;;;13.59;100.00
29815;BME280;16708;50.426;7.664;2023-05-22T02:25:52;984.58;;;13.55;100.00
29815;BME280;16708;50.426;7.664;2023-05-22T02:30:47;984.55;;;13.63;100.00
29815;BME280;16708;50.426;7.664;2023-05-22T02:35:41;984.65;;;13.61;100.00
29815;BME280;16708;50.426;7.664;2023-05-22T02:40:35;984.59;;;13.57;100.00
29815;BME280;16708;50.426;7.664;2023-05-22T02:45:30;984.55;;;13.48;100.00
29815;BME280;16708;50.426;7.664;2023-05-22T02:50:24;984.59;;;13.46;100.00
29815;BME280;16708;50.426;7.664;2023-05-22T02:55:18;984.53;;;13.36;100.00
29815;BME280;16708;50.426;7.664;2023-05-22T03:00:13;984.53;;;13.31;100.00
29815;BME280;16708;50.426;7.664;2023-05-22T03:05:07;984.55;;;13.27;100.00
29815;BME280;16708;50.426;7.664;2023-05-22T03:10:02;984.58;;;13.23;100.00
29815;BME280;16708;50.426;7.664;2023-05-22T03:14:56;984.64;;;13.15;100.00
29815;BME280;16708;50.426;7.664;2023-05-22T03:19:51;984.60;;;13.05;100.00
29815;BME280;16708;50.426;7.664;2023-05-22T03:24:44;984.57;;;13.04;100.00
29815;BME280;16708;50.426;7.664;2023-05-22T03:29:39;984.58;;;13.07;100.00
29815;BME280;16708;50.426;7.664;2023-05-22T03:34:33;984.56;;;13.09;100.00
29815;BME280;16708;50.426;7.664;2023-05-22T03:39:28;984.54;;;13.06;100.00
29815;BME280;16708;50.426;7.664;2023-05-22T03:44:22;984.65;;;13.03;100.00
29815;BME280;16708;50.426;7.664;2023-05-22T03:49:17;984.56;;;13.02;100.00
29815;BME280;16708;50.426;7.664;2023-05-22T03:54:11;984.48;;;12.96;100.00
29815;BME280;16708;50.426;7.664;2023-05-22T03:59:04;984.56;;;13.01;100.00
29815;BME280;16708;50.426;7.664;2023-05-22T04:03:58;984.52;;;13.00;100.00
29815;BME280;16708;50.426;7.664;2023-05-22T04:08:53;984.52;;;13.05;100.00
29815;BME280;16708;50.426;7.664;2023-05-22T04:13:47;984.57;;;13.11;100.00
29815;BME280;16708;50.426;7.664;2023-05-22T04:18:41;984.56;;;13.12;100.00
29815;BME280;16708;50.426;7.664;2023-05-22T04:23:33;984.66;;;13.16;100.00
29815;BME280;16708;50.426;7.664;2023-05-22T04:28:28;984.62;;;13.20;100.00
29815;BME280;16708;50.426;7.664;2023-05-22T04:33:23;984.70;;;13.19;100.00
29815;BME280;16708;50.426;7.664;2023-05-22T04:38:15;984.68;;;13.31;100.00
29815;BME280;16708;50.426;7.664;2023-05-22T04:43:09;984.62;;;13.43;100.00
29815;BME280;16708;50.426;7.664;2023-05-22T04:48:03;984.73;;;13.66;100.00
29815;BME280;16708;50.426;7.664;2023-05-22T04:52:58;984.77;;;13.76;100.00
29815;BME280;16708;50.426;7.664;2023-05-22T04:57:52;984.86;;;13.85;100.00
29815;BME280;16708;50.426;7.664;2023-05-22T05:02:47;984.93;;;14.06;100.00
29815;BME280;16708;50.426;7.664;2023-05-22T05:07:41;984.93;;;14.31;100.00
29815;BME280;16708;50.426;7.664;2023-05-22T05:12:36;984.91;;;14.52;100.00
29815;BME280;16708;50.426;7.664;2023-05-22T05:17:31;984.92;;;14.76;100.00
29815;BME280;16708;50.426;7.664;2023-05-22T05:22:25;984.86;;;15.01;100.00
29815;BME280;16708;50.426;7.664;2023-05-22T05:27:19;984.87;;;15.15;100.00
29815;BME280;16708;50.426;7.664;2023-05-22T05:32:13;984.90;;;15.44;100.00
29815;BME280;16708;50.426;7.664;2023-05-22T05:37:08;984.94;;;15.48;100.00
29815;BME280;16708;50.426;7.664;2023-05-22T05:42:02;984.91;;;15.63;100.00
29815;BME280;16708;50.426;7.664;2023-05-22T05:46:57;984.94;;;15.75;100.00
29815;BME280;16708;50.426;7.664;2023-05-22T05:51:50;984.96;;;16.05;100.00
29815;BME280;16708;50.426;7.664;2023-05-22T05:56:44;984.96;;;16.22;100.00
29815;BME280;16708;50.426;7.664;2023-05-22T06:01:39;985.04;;;16.31;100.00
29815;BME280;16708;50.426;7.664;2023-05-22T06:06:34;985.09;;;16.38;100.00
29815;BME280;16708;50.426;7.664;2023-05-22T06:11:28;985.06;;;16.26;100.00
29815;BME280;16708;50.426;7.664;2023-05-22T06:16:23;985.16;;;16.21;100.00
29815;BME280;16708;50.426;7.664;2023-05-22T06:21:18;985.19;;;16.58;100.00
29815;BME280;16708;50.426;7.664;2023-05-22T06:26:12;985.24;;;16.39;100.00
29815;BME280;16708;50.426;7.664;2023-05-22T06:31:07;985.26;;;16.43;100.00
29815;BME280;16708;50.426;7.664;2023-05-22T06:36:01;985.33;;;16.52;100.00
29815;BME280;16708;50.426;7.664;2023-05-22T06:40:55;985.26;;;16.74;100.00
29815;BME280;16708;50.426;7.664;2023-05-22T06:45:49;985.26;;;16.71;100.00
29815;BME280;16708;50.426;7.664;2023-05-22T06:50:43;985.29;;;16.95;100.00
29815;BME280;16708;50.426;7.664;2023-05-22T06:55:38;985.26;;;17.14;100.00
29815;BME280;16708;50.426;7.664;2023-05-22T07:00:33;985.31;;;17.17;100.00
29815;BME280;16708;50.426;7.664;2023-05-22T07:05:27;985.42;;;17.17;100.00
29815;BME280;16708;50.426;7.664;2023-05-22T07:10:22;985.36;;;17.17;100.00
29815;BME280;16708;50.426;7.664;2023-05-22T07:15:16;985.46;;;17.15;100.00
29815;BME280;16708;50.426;7.664;2023-05-22T07:20:10;985.39;;;17.22;100.00
29815;BME280;16708;50.426;7.664;2023-05-22T07:25:05;985.47;;;16.94;100.00
29815;BME280;16708;50.426;7.664;2023-05-22T07:29:59;985.61;;;16.79;100.00
29815;BME280;16708;50.426;7.664;2023-05-22T07:34:54;985.56;;;16.47;100.00
29815;BME280;16708;50.426;7.664;2023-05-22T07:39:49;985.53;;;16.74;100.00
29815;BME280;16708;50.426;7.664;2023-05-22T07:44:43;985.57;;;16.57;100.00
29815;BME280;16708;50.426;7.664;2023-05-22T07:49:37;985.50;;;16.84;100.00
29815;BME280;16708;50.426;7.664;2023-05-22T07:54:31;985.61;;;16.72;100.00
29815;BME280;16708;50.426;7.664;2023-05-22T07:59:25;985.56;;;16.98;100.00
29815;BME280;16708;50.426;7.664;2023-05-22T08:04:20;985.63;;;17.35;100.00
29815;BME280;16708;50.426;7.664;2023-05-22T08:09:15;985.65;;;17.83;100.00
29815;BME280;16708;50.426;7.664;2023-05-22T08:14:09;985.66;;;17.65;100.00
29815;BME280;16708;50.426;7.664;2023-05-22T08:19:03;985.65;;;17.89;100.00
29815;BME280;16708;50.426;7.664;2023-05-22T08:23:59;985.64;;;18.55;100.00
29815;BME280;16708;50.426;7.664;2023-05-22T08:28:53;985.57;;;19.14;100.00
29815;BME280;16708;50.426;7.664;2023-05-22T08:33:48;985.57;;;19.41;100.00
29815;BME280;16708;50.426;7.664;2023-05-22T08:38:43;985.61;;;18.50;100.00
29815;BME280;16708;50.426;7.664;2023-05-22T08:43:37;985.55;;;20.35;100.00
29815;BME280;16708;50.426;7.664;2023-05-22T08:48:32;985.51;;;20.83;100.00
29815;BME280;16708;50.426;7.664;2023-05-22T08:53:27;985.55;;;21.46;100.00
29815;BME280;16708;50.426;7.664;2023-05-22T08:58:21;985.45;;;22.33;100.00
29815;BME280;16708;50.426;7.664;2023-05-22T09:03:16;985.44;;;21.85;100.00
29815;BME280;16708;50.426;7.664;2023-05-22T09:08:11;985.52;;;21.75;100.00
29815;BME280;16708;50.426;7.664;2023-05-22T09:13:06;985.49;;;22.04;100.00
29815;BME280;16708;50.426;7.664;2023-05-22T09:18:01;985.47;;;23.00;100.00
29815;BME280;16708;50.426;7.664;2023-05-22T09:22:56;985.46;;;21.85;100.00
29815;BME280;16708;50.426;7.664;2023-05-22T09:27:50;985.46;;;21.95;100.00
29815;BME280;16708;50.426;7.664;2023-05-22T09:32:44;985.41;;;22.70;100.00
29815;BME280;16708;50.426;7.664;2023-05-22T09:37:39;985.35;;;23.25;100.00
29815;BME280;16708;50.426;7.664;2023-05-22T09:42:33;985.28;;;23.57;100.00
29815;BME280;16708;50.426;7.664;2023-05-22T09:47:29;985.33;;;23.24;100.00
29815;BME280;16708;50.426;7.664;2023-05-22T09:52:23;985.37;;;23.96;100.00
29815;BME280;16708;50.426;7.664;2023-05-22T09:57:18;985.37;;;24.26;100.00
29815;BME280;16708;50.426;7.664;2023-05-22T10:02:13;985.41;;;23.74;100.00
29815;BME280;16708;50.426;7.664;2023-05-22T10:07:07;985.30;;;23.61;100.00
29815;BME280;16708;50.426;7.664;2023-05-22T10:12:02;985.37;;;24.73;100.00
29815;BME280;16708;50.426;7.664;2023-05-22T10:16:57;985.34;;;25.06;100.00
29815;BME280;16708;50.426;7.664;2023-05-22T10:21:51;985.38;;;25.96;100.00
29815;BME280;16708;50.426;7.664;2023-05-22T10:31:41;985.16;;;28.13;84.86
29815;BME280;16708;50.426;7.664;2023-05-22T10:36:34;985.16;;;26.40;89.11
29815;BME280;16708;50.426;7.664;2023-05-22T10:41:28;985.15;;;26.85;89.58
29815;BME280;16708;50.426;7.664;2023-05-22T10:46:23;985.11;;;27.99;82.20
29815;BME280;16708;50.426;7.664;2023-05-22T10:51:18;985.07;;;28.96;69.27
29815;BME280;16708;50.426;7.664;2023-05-22T10:56:13;985.07;;;27.15;80.86
29815;BME280;16708;50.426;7.664;2023-05-22T11:06:02;985.08;;;28.60;66.50
29815;BME280;16708;50.426;7.664;2023-05-22T11:10:58;985.03;;;28.72;64.64
29815;BME280;16708;50.426;7.664;2023-05-22T11:15:51;984.99;;;30.15;62.82
29815;BME280;16708;50.426;7.664;2023-05-22T11:20:46;985.03;;;30.70;57.68
29815;BME280;16708;50.426;7.664;2023-05-22T11:25:41;984.97;;;29.74;59.61
29815;BME280;16708;50.426;7.664;2023-05-22T11:30:36;984.91;;;29.81;64.67
29815;BME280;16708;50.426;7.664;2023-05-22T11:35:31;984.82;;;29.32;59.99
29815;BME280;16708;50.426;7.664;2023-05-22T11:40:26;984.80;;;30.32;55.08
29815;BME280;16708;50.426;7.664;2023-05-22T11:45:17;984.72;;;31.63;50.21
29815;BME280;16708;50.426;7.664;2023-05-22T11:50:12;984.63;;;31.63;50.22
29815;BME280;16708;50.426;7.664;2023-05-22T11:55:07;984.58;;;31.12;51.37
29815;BME280;16708;50.426;7.664;2023-05-22T12:00:01;984.57;;;29.13;54.29
29815;BME280;16708;50.426;7.664;2023-05-22T12:04:55;984.50;;;30.23;52.73
29815;BME280;16708;50.426;7.664;2023-05-22T12:09:49;984.49;;;30.03;54.79
29815;BME280;16708;50.426;7.664;2023-05-22T12:14:42;984.58;;;29.70;58.50
29815;BME280;16708;50.426;7.664;2023-05-22T12:19:34;984.54;;;27.64;68.58
29815;BME280;16708;50.426;7.664;2023-05-22T12:24:27;984.49;;;29.05;60.60
29815;BME280;16708;50.426;7.664;2023-05-22T12:34:15;984.49;;;30.65;51.02
29815;BME280;16708;50.426;7.664;2023-05-22T12:39:10;984.49;;;29.81;59.42
29815;BME280;16708;50.426;7.664;2023-05-22T12:44:04;984.51;;;30.92;51.40
29815;BME280;16708;50.426;7.664;2023-05-22T12:48:59;984.48;;;31.57;47.97
29815;BME280;16708;50.426;7.664;2023-05-22T12:53:54;984.51;;;31.41;49.40
29815;BME280;16708;50.426;7.664;2023-05-22T12:58:48;984.51;;;30.99;48.73
29815;BME280;16708;50.426;7.664;2023-05-22T13:03:42;984.48;;;31.83;43.80
29815;BME280;16708;50.426;7.664;2023-05-22T13:08:37;984.42;;;31.85;47.35
29815;BME280;16708;50.426;7.664;2023-05-22T13:13:31;984.38;;;31.51;45.71
29815;BME280;16708;50.426;7.664;2023-05-22T13:18:26;984.51;;;31.76;45.38
29815;BME280;16708;50.426;7.664;2023-05-22T13:23:20;984.60;;;31.03;45.69
29815;BME280;16708;50.426;7.664;2023-05-22T13:28:12;984.67;;;30.77;49.06
29815;BME280;16708;50.426;7.664;2023-05-22T13:33:06;984.76;;;31.13;47.79
29815;BME280;16708;50.426;7.664;2023-05-22T13:38:00;984.87;;;32.30;45.66
29815;BME280;16708;50.426;7.664;2023-05-22T13:42:53;984.87;;;32.82;43.57
29815;BME280;16708;50.426;7.664;2023-05-22T13:47:48;984.88;;;32.79;41.04
29815;BME280;16708;50.426;7.664;2023-05-22T13:52:42;984.87;;;32.74;42.77
29815;BME280;16708;50.426;7.664;2023-05-22T13:57:36;984.78;;;31.69;45.69
29815;BME280;16708;50.426;7.664;2023-05-22T14:02:30;984.73;;;30.86;45.74
29815;BME280;16708;50.426;7.664;2023-05-22T14:07:24;984.75;;;30.84;45.48
29815;BME280;16708;50.426;7.664;2023-05-22T14:12:18;984.69;;;31.15;47.07
29815;BME280;16708;50.426;7.664;2023-05-22T14:17:13;984.72;;;30.69;46.91
29815;BME280;16708;50.426;7.664;2023-05-22T14:22:07;984.65;;;30.14;50.61
29815;BME280;16708;50.426;7.664;2023-05-22T14:27:01;984.68;;;29.56;51.91
29815;BME280;16708;50.426;7.664;2023-05-22T14:31:55;984.71;;;31.00;46.57
29815;BME280;16708;50.426;7.664;2023-05-22T14:36:49;984.59;;;30.71;47.11
29815;BME280;16708;50.426;7.664;2023-05-22T14:41:43;984.59;;;30.22;51.23
29815;BME280;16708;50.426;7.664;2023-05-22T14:46:37;984.61;;;30.67;47.79
29815;BME280;16708;50.426;7.664;2023-05-22T14:51:31;984.57;;;30.46;46.09
29815;BME280;16708;50.426;7.664;2023-05-22T14:56:26;984.61;;;30.47;45.91
29815;BME280;16708;50.426;7.664;2023-05-22T15:01:20;984.51;;;28.86;50.48
29815;BME280;16708;50.426;7.664;2023-05-22T15:06:13;984.54;;;27.45;54.74
29815;BME280;16708;50.426;7.664;2023-05-22T15:11:07;984.53;;;27.56;56.90
29815;BME280;16708;50.426;7.664;2023-05-22T15:16:00;984.67;;;27.30;57.08
29815;BME280;16708;50.426;7.664;2023-05-22T15:20:53;984.65;;;28.65;52.76
29815;BME280;16708;50.426;7.664;2023-05-22T15:25:48;984.63;;;27.25;60.77
29815;BME280;16708;50.426;7.664;2023-05-22T15:30:42;984.54;;;27.12;64.74
29815;BME280;16708;50.426;7.664;2023-05-22T15:35:36;984.48;;;26.10;71.03
29815;BME280;16708;50.426;7.664;2023-05-22T15:40:30;984.44;;;25.96;73.85
29815;BME280;16708;50.426;7.664;2023-05-22T15:50:16;984.37;;;23.92;93.24
29815;BME280;16708;50.426;7.664;2023-05-22T15:55:10;984.26;;;24.23;93.04
29815;BME280;16708;50.426;7.664;2023-05-22T16:00:04;984.24;;;24.46;89.79
29815;BME280;16708;50.426;7.664;2023-05-22T16:04:58;984.15;;;24.54;89.88
29815;BME280;16708;50.426;7.664;2023-05-22T16:09:52;984.12;;;25.00;89.71
29815;BME280;16708;50.426;7.664;2023-05-22T16:14:46;984.17;;;25.80;85.29
29815;BME280;16708;50.426;7.664;2023-05-22T16:19:40;984.28;;;26.32;81.80
29815;BME280;16708;50.426;7.664;2023-05-22T16:24:35;984.35;;;25.39;90.57
29815;BME280;16708;50.426;7.664;2023-05-22T16:29:28;984.23;;;25.20;92.50
29815;BME280;16708;50.426;7.664;2023-05-22T16:34:23;984.20;;;24.85;96.78
29815;BME280;16708;50.426;7.664;2023-05-22T16:39:17;984.21;;;24.58;99.22
29815;BME280;16708;50.426;7.664;2023-05-22T16:44:12;984.38;;;24.90;100.00
29815;BME280;16708;50.426;7.664;2023-05-22T16:49:05;984.34;;;24.25;100.00
29815;BME280;16708;50.426;7.664;2023-05-22T16:54:00;984.46;;;23.98;100.00
29815;BME280;16708;50.426;7.664;2023-05-22T16:58:52;984.52;;;25.13;93.62
29815;BME280;16708;50.426;7.664;2023-05-22T17:03:46;984.64;;;26.17;83.87
29815;BME280;16708;50.426;7.664;2023-05-22T17:08:40;984.66;;;24.71;96.10
29815;BME280;16708;50.426;7.664;2023-05-22T17:13:35;984.69;;;23.79;100.00
29815;BME280;16708;50.426;7.664;2023-05-22T17:18:27;984.83;;;23.35;100.00
29815;BME280;16708;50.426;7.664;2023-05-22T17:23:21;984.82;;;22.74;100.00
29815;BME280;16708;50.426;7.664;2023-05-22T17:28:16;984.94;;;22.73;100.00
29815;BME280;16708;50.426;7.664;2023-05-22T17:33:10;984.92;;;22.92;100.00
29815;BME280;16708;50.426;7.664;2023-05-22T17:38:03;984.91;;;22.70;100.00
29815;BME280;16708;50.426;7.664;2023-05-22T17:42:57;985.05;;;22.60;100.00
29815;BME280;16708;50.426;7.664;2023-05-22T17:47:51;985.14;;;22.06;100.00
29815;BME280;16708;50.426;7.664;2023-05-22T17:52:45;985.18;;;21.87;100.00
29815;BME280;16708;50.426;7.664;2023-05-22T17:57:39;985.26;;;21.43;100.00
29815;BME280;16708;50.426;7.664;2023-05-22T18:02:33;985.34;;;21.27;100.00
29815;BME280;16708;50.426;7.664;2023-05-22T18:07:26;985.48;;;21.04;100.00
29815;BME280;16708;50.426;7.664;2023-05-22T18:12:20;985.41;;;20.81;100.00
29815;BME280;16708;50.426;7.664;2023-05-22T18:17:13;985.47;;;20.83;100.00
29815;BME280;16708;50.426;7.664;2023-05-22T18:22:08;985.52;;;20.63;100.00
29815;BME280;16708;50.426;7.664;2023-05-22T18:27:02;985.58;;;20.81;100.00
29815;BME280;16708;50.426;7.664;2023-05-22T18:31:55;985.53;;;20.78;100.00
29815;BME280;16708;50.426;7.664;2023-05-22T18:36:49;985.62;;;20.64;100.00
29815;BME280;16708;50.426;7.664;2023-05-22T18:41:42;985.64;;;20.59;100.00
29815;BME280;16708;50.426;7.664;2023-05-22T18:46:36;985.68;;;20.47;100.00
29815;BME280;16708;50.426;7.664;2023-05-22T18:51:30;985.62;;;20.35;100.00
29815;BME280;16708;50.426;7.664;2023-05-22T18:56:24;985.62;;;20.20;100.00
29815;BME280;16708;50.426;7.664;2023-05-22T19:01:17;985.54;;;20.04;100.00
29815;BME280;16708;50.426;7.664;2023-05-22T19:06:13;985.52;;;19.90;100.00
29815;BME280;16708;50.426;7.664;2023-05-22T19:11:06;985.59;;;19.75;100.00
29815;BME280;16708;50.426;7.664;2023-05-22T19:16:01;985.61;;;19.58;100.00
29815;BME280;16708;50.426;7.664;2023-05-22T19:20:55;985.68;;;19.51;100.00
29815;BME280;16708;50.426;7.664;2023-05-22T19:25:49;985.68;;;19.32;100.00
29815;BME280;16708;50.426;7.664;2023-05-22T19:30:41;985.76;;;19.04;100.00
29815;BME280;16708;50.426;7.664;2023-05-22T19:35:35;985.93;;;18.74;100.00
29815;BME280;16708;50.426;7.664;2023-05-22T19:40:30;986.06;;;18.84;100.00
29815;BME280;16708;50.426;7.664;2023-05-22T19:45:22;986.10;;;18.83;100.00
29815;BME280;16708;50.426;7.664;2023-05-22T19:50:16;986.09;;;18.68;100.00
29815;BME280;16708;50.426;7.664;2023-05-22T19:55:08;986.11;;;18.61;100.00
29815;BME280;16708;50.426;7.664;2023-05-22T20:00:02;986.25;;;18.63;100.00
29815;BME280;16708;50.426;7.664;2023-05-22T20:04:56;986.24;;;18.37;100.00
29815;BME280;16708;50.426;7.664;2023-05-22T20:09:51;986.37;;;18.22;100.00
29815;BME280;16708;50.426;7.664;2023-05-22T20:14:45;986.38;;;18.14;100.00
29815;BME280;16708;50.426;7.664;2023-05-22T20:19:38;986.29;;;18.22;100.00
29815;BME280;16708;50.426;7.664;2023-05-22T20:24:33;986.34;;;18.25;100.00
29815;BME280;16708;50.426;7.664;2023-05-22T20:29:26;986.30;;;18.18;100.00
29815;BME280;16708;50.426;7.664;2023-05-22T20:34:20;986.29;;;18.01;100.00
29815;BME280;16708;50.426;7.664;2023-05-22T20:39:14;986.26;;;17.97;100.00
29815;BME280;16708;50.426;7.664;2023-05-22T20:44:08;986.31;;;17.91;100.00
29815;BME280;16708;50.426;7.664;2023-05-22T20:49:03;986.35;;;17.79;100.00
29815;BME280;16708;50.426;7.664;2023-05-22T20:53:56;986.43;;;17.77;100.00
29815;BME280;16708;50.426;7.664;2023-05-22T20:58:51;986.49;;;17.75;100.00
29815;BME280;16708;50.426;7.664;2023-05-22T21:03:45;986.54;;;17.76;100.00
29815;BME280;16708;50.426;7.664;2023-05-22T21:08:39;986.50;;;17.69;100.00
29815;BME280;16708;50.426;7.664;2023-05-22T21:13:32;986.56;;;17.56;100.00
29815;BME280;16708;50.426;7.664;2023-05-22T21:18:26;986.55;;;17.51;100.00
29815;BME280;16708;50.426;7.664;2023-05-22T21:23:19;986.54;;;17.34;100.00
29815;BME280;16708;50.426;7.664;2023-05-22T21:28:13;986.58;;;17.34;100.00
29815;BME280;16708;50.426;7.664;2023-05-22T21:33:08;986.54;;;17.29;100.00
29815;BME280;16708;50.426;7.664;2023-05-22T21:38:01;986.59;;;17.19;100.00
29815;BME280;16708;50.426;7.664;2023-05-22T21:42:56;986.58;;;17.14;100.00
29815;BME280;16708;50.426;7.664;2023-05-22T21:47:50;986.54;;;17.10;100.00
29815;BME280;16708;50.426;7.664;2023-05-22T21:52:44;986.56;;;17.05;100.00
29815;BME280;16708;50.426;7.664;2023-05-22T21:57:38;986.66;;;17.09;100.00
29815;BME280;16708;50.426;7.664;2023-05-22T22:02:29;986.68;;;17.04;100.00
29815;BME280;16708;50.426;7.664;2023-05-22T22:07:24;986.79;;;17.04;100.00
29815;BME280;16708;50.426;7.664;2023-05-22T22:12:16;986.72;;;16.93;100.00
29815;BME280;16708;50.426;7.664;2023-05-22T22:17:10;986.75;;;16.81;100.00
29815;BME280;16708;50.426;7.664;2023-05-22T22:22:04;986.83;;;16.76;100.00
29815;BME280;16708;50.426;7.664;2023-05-22T22:26:59;986.84;;;16.67;100.00
29815;BME280;16708;50.426;7.664;2023-05-22T22:31:53;986.88;;;16.58;100.00
29815;BME280;16708;50.426;7.664;2023-05-22T22:36:45;986.86;;;16.49;100.00
29815;BME280;16708;50.426;7.664;2023-05-22T22:41:39;986.84;;;16.51;100.00
29815;BME280;16708;50.426;7.664;2023-05-22T22:46:33;986.85;;;16.49;100.00
29815;BME280;16708;50.426;7.664;2023-05-22T22:51:27;986.85;;;16.52;100.00
29815;BME280;16708;50.426;7.664;2023-05-22T22:56:21;986.82;;;16.42;100.00
29815;BME280;16708;50.426;7.664;2023-05-22T23:01:15;986.83;;;16.36;100.00
29815;BME280;16708;50.426;7.664;2023-05-22T23:06:11;986.96;;;16.39;100.00
29815;BME280;16708;50.426;7.664;2023-05-22T23:11:03;987.02;;;16.48;100.00
29815;BME280;16708;50.426;7.664;2023-05-22T23:15:56;987.00;;;16.53;100.00
29815;BME280;16708;50.426;7.664;2023-05-22T23:20:50;987.01;;;16.47;100.00
29815;BME280;16708;50.426;7.664;2023-05-22T23:25:43;986.96;;;16.52;100.00
29815;BME280;16708;50.426;7.664;2023-05-22T23:30:37;987.03;;;16.56;100.00
29815;BME280;16708;50.426;7.664;2023-05-22T23:35:31;987.03;;;16.50;100.00
29815;BME280;16708;50.426;7.664;2023-05-22T23:40:25;987.06;;;16.39;100.00
29815;BME280;16708;50.426;7.664;2023-05-22T23:45:19;987.11;;;16.31;100.00
29815;BME280;16708;50.426;7.664;2023-05-22T23:50:13;987.15;;;16.15;100.00
29815;BME280;16708;50.426;7.664;2023-05-22T23:55:05;987.23;;;16.01;100.00
